Time;durP1;ratioP1;P1;durP2;ratioP2;P2;SDS_P1;SDS_P2;PMS_P1;PMS_P2;Temp;Humidity;BMP_temperature;BMP_pressure;BME280_temperature;BME280_humidity;BME280_pressure;Samples;Min_cycle;Max_cycle;Signal;HPM_P1;HPM_P2
2022/04/05 00:02:56;;;;;;;4.53;3.47;;;;;;;;;;6293155;28;20055;-81
2022/04/05 00:05:58;;;;;;;4.88;3.53;;;;;;;;;;6307129;27;20051;-80
2022/04/05 00:08:59;;;;;;;5.32;3.63;;;;;;;;;;6304198;27;20051;-81
2022/04/05 00:12:01;;;;;;;4.80;3.50;;;;;;;;;;6290453;28;20052;-80
2022/04/05 00:15:05;;;;;;;4.80;3.30;;;;;;;;;;6281042;28;20045;-80
2022/04/05 00:18:06;;;;;;;;;;;;;;;;;;6265060;28;20122;-82
2022/04/05 00:21:08;;;;;;;4.57;3.00;;;;;;;;;;6266209;28;19920;-80
2022/04/05 00:24:10;;;;;;;3.35;2.50;;;;;;;;;;6264831;28;20071;-80
2022/04/05 00:27:11;;;;;;;4.15;2.75;;;;;;;;;;6265892;28;20661;-82
2022/04/05 00:30:14;;;;;;;4.30;2.97;;;;;;;;;;6265488;28;20090;-82
2022/04/05 00:33:16;;;;;;;4.43;3.08;;;;;;;;;;6266563;28;20144;-82
2022/04/05 00:36:18;;;;;;;4.40;2.88;;;;;;;;;;6281172;28;20086;-81
2022/04/05 00:39:21;;;;;;;3.38;2.17;;;;;;;;;;6289298;28;20114;-80
2022/04/05 00:42:22;;;;;;;3.45;2.47;;;;;;;;;;6290669;28;20070;-80
2022/04/05 00:45:24;;;;;;;3.40;2.30;;;;;;;;;;6281326;28;20091;-81
2022/04/05 00:48:33;;;;;;;2.75;2.00;;;;;;;;;;6280995;28;20068;-83
2022/04/05 00:51:34;;;;;;;3.92;2.45;;;;;;;;;;6265589;28;20191;-82
2022/04/05 00:54:37;;;;;;;2.97;2.10;;;;;;;;;;6285401;28;20171;-81
2022/04/05 00:57:40;;;;;;;4.10;2.60;;;;;;;;;;6288719;28;20063;-82
2022/04/05 01:00:42;;;;;;;3.95;2.88;;;;;;;;;;6246349;28;20038;-81
2022/04/05 01:03:48;;;;;;;3.10;2.33;;;;;;;;;;6255474;28;20265;-81
2022/04/05 01:06:51;;;;;;;4.18;2.90;;;;;;;;;;6240386;28;20127;-82
2022/04/05 01:09:53;;;;;;;4.65;2.60;;;;;;;;;;6275155;28;20114;-82
2022/04/05 01:12:56;;;;;;;3.25;2.22;;;;;;;;;;6289103;28;20051;-81
2022/04/05 01:15:58;;;;;;;4.00;2.57;;;;;;;;;;6250616;28;20679;-81
2022/04/05 01:18:59;;;;;;;2.70;1.92;;;;;;;;;;6240313;28;20324;-82
2022/04/05 01:22:02;;;;;;;2.90;2.17;;;;;;;;;;6240178;28;20111;-81
2022/04/05 01:25:04;;;;;;;2.67;1.85;;;;;;;;;;6252825;28;20052;-81
2022/04/05 01:28:06;;;;;;;2.67;2.05;;;;;;;;;;6240728;28;20041;-82
2022/04/05 01:31:08;;;;;;;2.45;1.73;;;;;;;;;;6238099;28;20147;-81
2022/04/05 01:34:11;;;;;;;2.13;1.60;;;;;;;;;;6238613;28;20522;-82
2022/04/05 01:37:13;;;;;;;3.13;2.00;;;;;;;;;;6248208;28;20162;-81
2022/04/05 01:40:14;;;;;;;2.72;1.73;;;;;;;;;;6259337;28;20494;-81
2022/04/05 01:43:16;;;;;;;2.67;1.92;;;;;;;;;;6276849;28;20106;-81
2022/04/05 01:46:17;;;;;;;3.45;2.13;;;;;;;;;;6271961;28;20982;-82
2022/04/05 01:49:20;;;;;;;2.72;2.17;;;;;;;;;;6278807;28;20060;-82
2022/04/05 01:52:22;;;;;;;3.20;2.10;;;;;;;;;;6263803;28;20103;-82
2022/04/05 01:55:23;;;;;;;2.45;1.90;;;;;;;;;;6275070;28;20104;-81
2022/04/05 01:58:25;;;;;;;2.22;1.52;;;;;;;;;;6292608;28;20044;-81
2022/04/05 02:01:27;;;;;;;2.72;1.85;;;;;;;;;;6269053;28;20040;-81
2022/04/05 02:04:28;;;;;;;2.80;2.15;;;;;;;;;;6282987;28;20061;-81
2022/04/05 02:07:30;;;;;;;2.58;1.80;;;;;;;;;;6282613;28;20390;-81
2022/04/05 02:10:32;;;;;;;2.58;1.83;;;;;;;;;;6302315;28;20389;-81
2022/04/05 02:13:34;;;;;;;2.95;1.85;;;;;;;;;;6306035;28;20063;-80
2022/04/05 02:16:37;;;;;;;3.10;1.88;;;;;;;;;;6280901;28;20513;-82
2022/04/05 02:19:41;;;;;;;2.70;2.13;;;;;;;;;;6264735;28;20041;-81
2022/04/05 02:22:45;;;;;;;2.17;1.50;;;;;;;;;;6266711;28;20048;-81
2022/04/05 02:26:03;;;;;;;1.77;1.30;;;;;;;;;;6289761;28;20166;-80
2022/04/05 02:29:09;;;;;;;2.40;1.67;;;;;;;;;;6319449;28;20092;-80
2022/04/05 02:32:16;;;;;;;1.70;1.23;;;;;;;;;;6280115;28;20045;-82
2022/04/05 02:35:18;;;;;;;2.47;1.73;;;;;;;;;;6282018;28;20128;-81
2022/04/05 02:38:22;;;;;;;2.03;1.52;;;;;;;;;;6264279;28;20067;-81
2022/04/05 02:41:23;;;;;;;2.50;1.58;;;;;;;;;;6266060;28;20301;-81
2022/04/05 02:44:26;;;;;;;1.30;1.20;;;;;;;;;;6279199;28;20036;-83
2022/04/05 02:47:34;;;;;;;1.63;1.38;;;;;;;;;;6276022;28;20183;-82
2022/04/05 02:50:36;;;;;;;1.63;1.33;;;;;;;;;;6292264;28;20540;-81
2022/04/05 02:53:40;;;;;;;2.65;1.40;;;;;;;;;;6292662;28;20065;-81
2022/04/05 02:56:42;;;;;;;1.50;1.30;;;;;;;;;;6295359;28;20041;-80
2022/04/05 02:59:45;;;;;;;;;;;;;;;;;;6286583;28;20086;-82
2022/04/05 03:02:47;;;;;;;2.60;1.75;;;;;;;;;;6286921;28;19947;-80
2022/04/05 03:05:50;;;;;;;2.42;1.30;;;;;;;;;;6271320;28;20402;-82
2022/04/05 03:08:56;;;;;;;;;;;;;;;;;;6295156;28;20043;-81
2022/04/05 03:11:58;;;;;;;3.15;1.60;;;;;;;;;;6297688;28;19926;-82
2022/04/05 03:15:03;;;;;;;2.00;1.60;;;;;;;;;;6286023;28;20049;-82
2022/04/05 03:18:04;;;;;;;2.35;1.70;;;;;;;;;;6303133;28;20421;-82
2022/04/05 03:21:08;;;;;;;;;;;;;;;;;;6270936;28;20041;-81
2022/04/05 03:24:09;;;;;;;3.60;1.80;;;;;;;;;;6308196;28;20025;-80
2022/04/05 03:27:11;;;;;;;2.33;1.40;;;;;;;;;;6308966;28;20049;-81
2022/04/05 03:30:15;;;;;;;2.70;2.00;;;;;;;;;;6291383;28;20047;-82
2022/04/05 03:33:18;;;;;;;3.13;1.83;;;;;;;;;;6292245;28;20072;-81
2022/04/05 03:36:21;;;;;;;2.70;2.15;;;;;;;;;;6292750;28;20131;-81
2022/04/05 03:39:23;;;;;;;7.32;2.38;;;;;;;;;;6291825;28;20052;-81
2022/04/05 03:42:26;;;;;;;3.20;2.40;;;;;;;;;;6291946;28;20062;-81
2022/04/05 03:45:28;;;;;;;4.35;2.97;;;;;;;;;;6246396;28;20418;-81
2022/04/05 03:48:31;;;;;;;3.58;2.60;;;;;;;;;;6244947;28;20045;-81
2022/04/05 03:51:37;;;;;;;4.80;3.08;;;;;;;;;;6266171;28;20110;-82
2022/04/05 03:54:39;;;;;;;4.18;2.60;;;;;;;;;;6279172;28;20051;-82
2022/04/05 03:57:46;;;;;;;3.22;2.35;;;;;;;;;;6269467;28;20049;-82
2022/04/05 04:00:51;;;;;;;4.35;2.92;;;;;;;;;;6266518;28;20045;-81
2022/04/05 04:04:01;;;;;;;5.03;2.58;;;;;;;;;;6267716;28;20044;-82
2022/04/05 04:07:03;;;;;;;5.67;2.90;;;;;;;;;;6283986;28;20048;-81
2022/04/05 04:10:06;;;;;;;3.33;1.98;;;;;;;;;;6267017;28;20295;-81
2022/04/05 04:13:08;;;;;;;4.25;2.88;;;;;;;;;;6268526;28;20041;-82
2022/04/05 04:16:15;;;;;;;4.10;2.60;;;;;;;;;;6300078;28;20155;-79
2022/04/05 04:19:18;;;;;;;3.03;2.65;;;;;;;;;;6291276;28;20052;-82
2022/04/05 04:22:20;;;;;;;4.07;2.30;;;;;;;;;;6292738;28;20051;-81
2022/04/05 04:25:23;;;;;;;3.50;2.50;;;;;;;;;;6291847;28;20182;-82
2022/04/05 04:28:26;;;;;;;3.15;2.20;;;;;;;;;;6293215;28;20048;-81
2022/04/05 04:31:29;;;;;;;;;;;;;;;;;;6292048;28;20048;-81
2022/04/05 04:34:31;;;;;;;1.75;1.58;;;;;;;;;;6292341;28;19924;-81
2022/04/05 04:37:33;;;;;;;2.75;1.95;;;;;;;;;;6307046;28;20102;-81
2022/04/05 04:40:35;;;;;;;2.55;2.08;;;;;;;;;;6268310;28;20110;-81
2022/04/05 04:43:37;;;;;;;2.97;1.80;;;;;;;;;;6274074;28;20103;-81
2022/04/05 04:46:38;;;;;;;3.83;2.50;;;;;;;;;;6291280;28;20104;-82
2022/04/05 04:49:40;;;;;;;3.72;2.45;;;;;;;;;;6292211;28;20044;-82
2022/04/05 04:52:42;;;;;;;2.53;1.88;;;;;;;;;;6289115;28;20044;-82
2022/04/05 04:55:43;;;;;;;3.00;2.10;;;;;;;;;;6298825;28;20110;-82
2022/04/05 04:59:05;;;;;;;2.33;1.77;;;;;;;;;;6267768;28;20074;-81
2022/04/05 05:02:07;;;;;;;1.83;1.58;;;;;;;;;;6267279;28;20040;-80
2022/04/05 05:05:09;;;;;;;2.05;1.50;;;;;;;;;;6282488;28;20056;-80
2022/04/05 05:08:11;;;;;;;1.65;1.40;;;;;;;;;;6281893;28;20056;-81
2022/04/05 05:11:12;;;;;;;2.25;1.42;;;;;;;;;;6266090;28;20123;-81
2022/04/05 05:14:14;;;;;;;1.45;1.20;;;;;;;;;;6270692;28;20072;-81
2022/04/05 05:17:15;;;;;;;2.65;1.38;;;;;;;;;;6292438;28;20127;-81
2022/04/05 05:20:17;;;;;;;2.03;1.23;;;;;;;;;;6292188;28;20399;-80
2022/04/05 05:23:19;;;;;;;1.67;1.38;;;;;;;;;;6266121;28;20053;-82
2022/04/05 05:26:21;;;;;;;1.27;1.13;;;;;;;;;;6291969;28;20719;-80
2022/04/05 05:29:23;;;;;;;0.77;0.77;;;;;;;;;;6302427;27;20049;-81
2022/04/05 05:32:25;;;;;;;1.65;1.20;;;;;;;;;;6267347;28;20501;-81
2022/04/05 05:35:26;;;;;;;1.60;1.17;;;;;;;;;;6267459;28;20048;-81
2022/04/05 05:38:28;;;;;;;1.50;1.10;;;;;;;;;;6284308;28;20048;-80
2022/04/05 05:41:30;;;;;;;1.67;1.20;;;;;;;;;;6289725;28;20044;-81
2022/04/05 05:44:33;;;;;;;0.77;0.77;;;;;;;;;;6283413;28;20095;-82
2022/04/05 05:47:35;;;;;;;1.30;1.20;;;;;;;;;;6285418;28;20067;-82
2022/04/05 05:50:37;;;;;;;1.20;1.10;;;;;;;;;;6289311;28;20212;-81
2022/04/05 05:53:38;;;;;;;3.05;1.92;;;;;;;;;;6273929;28;20454;-82
2022/04/05 05:56:40;;;;;;;2.78;2.00;;;;;;;;;;6265460;28;20075;-83
2022/04/05 05:59:42;;;;;;;2.15;1.70;;;;;;;;;;6273576;28;20424;-81
2022/04/05 06:02:45;;;;;;;3.05;2.10;;;;;;;;;;6292630;28;20193;-81
2022/04/05 06:05:47;;;;;;;2.28;1.50;;;;;;;;;;6291486;28;20113;-83
2022/04/05 06:08:49;;;;;;;2.40;1.95;;;;;;;;;;6290952;28;20080;-83
2022/04/05 06:11:50;;;;;;;2.00;1.77;;;;;;;;;;6287179;28;20099;-81
2022/04/05 06:14:52;;;;;;;2.42;1.83;;;;;;;;;;6279997;28;20049;-83
2022/04/05 06:17:55;;;;;;;2.65;2.05;;;;;;;;;;6278025;28;20111;-82
2022/04/05 06:20:57;;;;;;;2.00;1.70;;;;;;;;;;6260710;28;20167;-82
2022/04/05 06:23:58;;;;;;;2.25;1.83;;;;;;;;;;6279626;28;20443;-82
2022/04/05 06:27:00;;;;;;;2.42;1.98;;;;;;;;;;6294097;28;20404;-81
2022/04/05 06:30:02;;;;;;;2.65;2.03;;;;;;;;;;6274783;28;20131;-81
2022/04/05 06:33:18;;;;;;;1.85;1.55;;;;;;;;;;6247978;28;20046;-80
2022/04/05 06:36:20;;;;;;;2.10;1.75;;;;;;;;;;6248140;28;20045;-81
2022/04/05 06:39:22;;;;;;;1.45;1.30;;;;;;;;;;6263783;28;20053;-80
2022/04/05 06:42:25;;;;;;;3.17;2.20;;;;;;;;;;6273837;28;20056;-81
2022/04/05 06:45:28;;;;;;;2.13;1.92;;;;;;;;;;6258762;28;20452;-81
2022/04/05 06:48:30;;;;;;;2.20;1.85;;;;;;;;;;6299149;28;20051;-80
2022/04/05 06:51:31;;;;;;;2.50;2.10;;;;;;;;;;6294066;28;20044;-81
2022/04/05 06:54:33;;;;;;;3.50;2.55;;;;;;;;;;6290063;27;20055;-81
2022/04/05 06:57:35;;;;;;;2.58;2.30;;;;;;;;;;6287820;27;20049;-80
2022/04/05 07:00:37;;;;;;;3.65;2.75;;;;;;;;;;6272634;28;20045;-82
2022/04/05 07:03:39;;;;;;;2.72;1.90;;;;;;;;;;6290165;27;20126;-82
2022/04/05 07:06:41;;;;;;;4.00;2.20;;;;;;;;;;6291438;27;20413;-81
2022/04/05 07:09:43;;;;;;;2.10;1.90;;;;;;;;;;6298734;27;20201;-80
2022/04/05 07:12:46;;;;;;;1.67;1.58;;;;;;;;;;6295694;28;20068;-83
2022/04/05 07:15:48;;;;;;;2.83;2.08;;;;;;;;;;6279743;28;20065;-81
2022/04/05 07:18:50;;;;;;;1.63;1.52;;;;;;;;;;6300216;28;20052;-81
2022/04/05 07:21:51;;;;;;;1.88;1.60;;;;;;;;;;6297575;28;20068;-81
2022/04/05 07:24:53;;;;;;;2.70;1.77;;;;;;;;;;6295712;28;20123;-81
2022/04/05 07:27:55;;;;;;;1.92;1.50;;;;;;;;;;6270704;28;20041;-80
2022/04/05 07:30:56;;;;;;;1.73;1.20;;;;;;;;;;6284981;28;20069;-81
2022/04/05 07:33:58;;;;;;;0.80;0.80;;;;;;;;;;6270270;28;20045;-81
2022/04/05 07:37:00;;;;;;;2.15;1.50;;;;;;;;;;6302270;28;20097;-80
2022/04/05 07:40:05;;;;;;;2.22;1.35;;;;;;;;;;6268048;28;20049;-80
2022/04/05 07:43:07;;;;;;;1.63;0.93;;;;;;;;;;6301842;28;20064;-80
2022/04/05 07:46:10;;;;;;;1.42;1.20;;;;;;;;;;6280178;28;20051;-81
2022/04/05 07:49:12;;;;;;;2.13;1.48;;;;;;;;;;6294759;28;20727;-82
2022/04/05 07:52:14;;;;;;;2.17;1.20;;;;;;;;;;6293123;28;20032;-80
2022/04/05 07:55:16;;;;;;;3.40;2.00;;;;;;;;;;6292787;28;20091;-79
2022/04/05 07:58:17;;;;;;;1.75;1.00;;;;;;;;;;6294908;28;20124;-80
2022/04/05 08:01:19;;;;;;;1.70;1.27;;;;;;;;;;6291611;28;20067;-79
2022/04/05 08:04:21;;;;;;;1.02;0.93;;;;;;;;;;6294596;28;20485;-81
2022/04/05 08:07:23;;;;;;;3.15;1.70;;;;;;;;;;6294980;28;20045;-81
2022/04/05 08:10:25;;;;;;;2.88;1.50;;;;;;;;;;6278220;28;20081;-80
2022/04/05 08:13:26;;;;;;;0.82;0.80;;;;;;;;;;6270211;28;20127;-80
2022/04/05 08:16:28;;;;;;;1.30;1.00;;;;;;;;;;6289458;28;20068;-80
2022/04/05 08:19:30;;;;;;;1.67;1.05;;;;;;;;;;6293697;28;20123;-80
2022/04/05 08:22:32;;;;;;;1.25;0.60;;;;;;;;;;6293335;28;20049;-81
2022/04/05 08:25:34;;;;;;;0.70;0.70;;;;;;;;;;6275585;28;20109;-79
2022/04/05 08:28:35;;;;;;;1.10;0.88;;;;;;;;;;6268304;28;20075;-80
2022/04/05 08:31:37;;;;;;;1.02;0.80;;;;;;;;;;6290484;28;20113;-79
2022/04/05 08:34:45;;;;;;;1.27;1.10;;;;;;;;;;6290581;28;20105;-79
2022/04/05 08:37:48;;;;;;;0.80;0.65;;;;;;;;;;6285729;28;20075;-78
2022/04/05 08:40:50;;;;;;;0.95;0.63;;;;;;;;;;6265817;28;20072;-79
2022/04/05 08:43:52;;;;;;;0.80;0.80;;;;;;;;;;6246684;28;20091;-79
2022/04/05 08:46:54;;;;;;;0.50;0.40;;;;;;;;;;6255112;28;20107;-80
2022/04/05 08:49:57;;;;;;;0.50;0.50;;;;;;;;;;6266304;28;20060;-80
2022/04/05 08:53:00;;;;;;;0.93;0.40;;;;;;;;;;6290432;28;20102;-79
2022/04/05 08:56:08;;;;;;;0.30;0.30;;;;;;;;;;6268041;28;20427;-80
2022/04/05 08:59:10;;;;;;;0.50;0.50;;;;;;;;;;6267089;28;20115;-80
2022/04/05 09:02:13;;;;;;;1.58;0.40;;;;;;;;;;6282172;28;20091;-81
2022/04/05 09:05:28;;;;;;;0.50;0.50;;;;;;;;;;6266414;28;20045;-79
2022/04/05 09:08:35;;;;;;;1.08;0.38;;;;;;;;;;6267197;28;20053;-81
2022/04/05 09:11:46;;;;;;;0.65;0.28;;;;;;;;;;6280662;28;20179;-81
2022/04/05 09:14:53;;;;;;;0.35;0.35;;;;;;;;;;6274431;28;20822;-80
2022/04/05 09:17:56;;;;;;;0.45;0.45;;;;;;;;;;6291356;28;20792;-83
2022/04/05 09:20:57;;;;;;;0.40;0.32;;;;;;;;;;6265725;28;20079;-81
2022/04/05 09:24:06;;;;;;;0.60;0.50;;;;;;;;;;6267667;28;20041;-82
2022/04/05 09:27:09;;;;;;;1.67;0.40;;;;;;;;;;6299509;28;20049;-83
2022/04/05 09:30:15;;;;;;;0.38;0.38;;;;;;;;;;6274286;28;20122;-80
2022/04/05 09:33:17;;;;;;;0.10;0.10;;;;;;;;;;6264220;28;20501;-79
2022/04/05 09:36:19;;;;;;;0.30;0.30;;;;;;;;;;6263679;28;20056;-79
2022/04/05 09:39:25;;;;;;;0.55;0.38;;;;;;;;;;6269993;28;20386;-79
2022/04/05 09:42:26;;;;;;;0.65;0.30;;;;;;;;;;6305947;27;20055;-77
2022/04/05 09:45:48;;;;;;;0.20;0.20;;;;;;;;;;6283885;27;20052;-79
2022/04/05 09:49:06;;;;;;;0.20;0.20;;;;;;;;;;6275513;28;20056;-79
2022/04/05 09:52:24;;;;;;;0.40;0.32;;;;;;;;;;6279747;28;20157;-80
2022/04/05 09:55:25;;;;;;;0.30;0.30;;;;;;;;;;6264949;28;20069;-80
2022/04/05 09:58:28;;;;;;;0.60;0.40;;;;;;;;;;6264163;28;20557;-79
2022/04/05 10:01:32;;;;;;;0.40;0.20;;;;;;;;;;6262371;28;20129;-78
2022/04/05 10:04:35;;;;;;;1.88;0.60;;;;;;;;;;6263812;28;20052;-80
2022/04/05 10:07:37;;;;;;;0.30;0.20;;;;;;;;;;6264428;28;20753;-80
2022/04/05 10:10:40;;;;;;;0.55;0.40;;;;;;;;;;6264115;28;20049;-79
2022/04/05 10:13:42;;;;;;;1.02;0.50;;;;;;;;;;6268140;28;20064;-80
2022/04/05 10:16:45;;;;;;;1.00;0.28;;;;;;;;;;6264004;28;20095;-79
2022/04/05 10:19:50;;;;;;;0.57;0.50;;;;;;;;;;6264206;28;20048;-78
2022/04/05 10:22:56;;;;;;;0.40;0.40;;;;;;;;;;6264089;28;20122;-80
2022/04/05 10:25:58;;;;;;;0.98;0.80;;;;;;;;;;6262559;28;20567;-80
2022/04/05 10:29:05;;;;;;;1.23;1.00;;;;;;;;;;6264226;28;20045;-80
2022/04/05 10:32:06;;;;;;;1.40;1.27;;;;;;;;;;6277290;28;20053;-81
2022/04/05 10:35:10;;;;;;;1.50;1.25;;;;;;;;;;6264845;28;20446;-80
2022/04/05 10:38:19;;;;;;;2.17;1.70;;;;;;;;;;6264187;28;20101;-80
2022/04/05 10:41:30;;;;;;;2.53;1.70;;;;;;;;;;6264484;28;20401;-80
2022/04/05 10:44:31;;;;;;;2.70;1.60;;;;;;;;;;6282955;28;20456;-81
2022/04/05 10:47:33;;;;;;;2.53;1.60;;;;;;;;;;6271873;28;20127;-81
2022/04/05 10:51:00;;;;;;;3.10;2.00;;;;;;;;;;6289170;28;20527;-79
2022/04/05 10:54:20;;;;;;;3.58;1.85;;;;;;;;;;6282114;28;20036;-79
2022/04/05 10:57:26;;;;;;;1.85;1.52;;;;;;;;;;6273679;28;20398;-81
2022/04/05 11:00:27;;;;;;;3.30;2.28;;;;;;;;;;6272952;28;20800;-80
2022/04/05 11:03:29;;;;;;;2.40;1.85;;;;;;;;;;6263947;28;20099;-79
2022/04/05 11:07:01;;;;;;;3.75;1.70;;;;;;;;;;6263795;28;20040;-80
2022/04/05 11:10:03;;;;;;;1.88;1.23;;;;;;;;;;6288405;28;20037;-81
2022/04/05 11:13:18;;;;;;;1.63;1.02;;;;;;;;;;6283436;28;20501;-79
2022/04/05 11:16:21;;;;;;;1.58;1.20;;;;;;;;;;6271281;28;20049;-78
2022/04/05 11:19:27;;;;;;;2.00;1.38;;;;;;;;;;6290010;28;20082;-78
2022/04/05 11:22:35;;;;;;;2.05;1.55;;;;;;;;;;6299790;28;20449;-78
2022/04/05 11:25:37;;;;;;;3.40;1.85;;;;;;;;;;6277335;28;20048;-79
2022/04/05 11:28:45;;;;;;;4.03;2.00;;;;;;;;;;6275035;28;20033;-81
2022/04/05 11:32:05;;;;;;;3.47;2.05;;;;;;;;;;6276632;28;20489;-78
2022/04/05 11:35:25;;;;;;;1.92;1.17;;;;;;;;;;6274716;28;20037;-79
2022/04/05 11:38:28;;;;;;;5.95;2.00;;;;;;;;;;6303359;28;20052;-80
2022/04/05 11:41:31;;;;;;;3.13;1.10;;;;;;;;;;6295838;28;20036;-80
2022/04/05 11:44:33;;;;;;;0.93;0.70;;;;;;;;;;6315901;28;20060;-78
2022/04/05 11:47:34;;;;;;;1.70;0.88;;;;;;;;;;6251840;28;20045;-80
2022/04/05 11:50:37;;;;;;;1.30;0.90;;;;;;;;;;6301767;28;20044;-80
2022/04/05 11:53:40;;;;;;;0.70;0.60;;;;;;;;;;6285818;28;20055;-79
2022/04/05 11:56:41;;;;;;;0.80;0.70;;;;;;;;;;6308493;28;20049;-81
2022/04/05 11:59:43;;;;;;;0.82;0.70;;;;;;;;;;6276909;28;20431;-77
2022/04/05 12:02:45;;;;;;;1.77;0.57;;;;;;;;;;6281361;28;20044;-80
2022/04/05 12:05:47;;;;;;;1.20;0.63;;;;;;;;;;6282360;28;20060;-80
2022/04/05 12:08:52;;;;;;;1.48;0.80;;;;;;;;;;6287695;28;20044;-81
2022/04/05 12:11:54;;;;;;;1.27;0.73;;;;;;;;;;6284476;28;20044;-79
2022/04/05 12:14:56;;;;;;;1.02;0.77;;;;;;;;;;6286318;28;20071;-79
2022/04/05 12:18:17;;;;;;;1.02;0.70;;;;;;;;;;6254550;28;20095;-79
2022/04/05 12:21:21;;;;;;;1.40;0.98;;;;;;;;;;6286000;28;20072;-77
2022/04/05 12:24:24;;;;;;;2.30;1.50;;;;;;;;;;6280031;28;20036;-78
2022/04/05 12:27:28;;;;;;;0.98;0.80;;;;;;;;;;6283695;28;20040;-79
2022/04/05 12:30:30;;;;;;;0.82;0.68;;;;;;;;;;6285152;28;20068;-78
2022/04/05 12:33:31;;;;;;;1.70;1.20;;;;;;;;;;6255935;28;20490;-78
2022/04/05 12:36:42;;;;;;;2.22;1.42;;;;;;;;;;6265708;28;20049;-79
2022/04/05 12:39:49;;;;;;;3.53;1.80;;;;;;;;;;6256724;28;20045;-77
2022/04/05 12:42:51;;;;;;;2.70;1.80;;;;;;;;;;6262551;28;20056;-80
2022/04/05 12:45:54;;;;;;;4.75;2.72;;;;;;;;;;6260253;28;20036;-79
2022/04/05 12:49:22;;;;;;;2.47;1.73;;;;;;;;;;6258489;28;20049;-79
2022/04/05 12:52:36;;;;;;;4.93;3.53;;;;;;;;;;6273741;28;20052;-77
2022/04/05 12:55:38;;;;;;;11.35;5.30;;;;;;;;;;6258353;28;20092;-79
2022/04/05 12:58:41;;;;;;;2.83;2.35;;;;;;;;;;6259466;28;20504;-79
2022/04/05 13:01:43;;;;;;;;;;;;;;;;;;6284728;28;20158;-79
2022/04/05 13:04:45;;;;;;;3.30;2.03;;;;;;;;;;6295407;28;20146;-78
2022/04/05 13:07:53;;;;;;;4.10;2.08;;;;;;;;;;6295616;28;20067;-78
2022/04/05 13:10:55;;;;;;;3.15;2.22;;;;;;;;;;6292165;28;20048;-80
2022/04/05 13:14:16;;;;;;;4.82;2.63;;;;;;;;;;6294205;28;20040;-80
2022/04/05 13:17:18;;;;;;;4.03;3.08;;;;;;;;;;6295046;28;20078;-80
2022/04/05 13:20:25;;;;;;;6.88;4.30;;;;;;;;;;6268032;28;20137;-79
2022/04/05 13:23:27;;;;;;;6.75;4.57;;;;;;;;;;6257226;28;20110;-79
2022/04/05 13:26:30;;;;;;;9.35;6.30;;;;;;;;;;6267701;28;20060;-79
2022/04/05 13:29:33;;;;;;;14.40;9.97;;;;;;;;;;6266096;28;20052;-78
2022/04/05 13:32:35;;;;;;;5.13;2.95;;;;;;;;;;6269369;28;20041;-79
2022/04/05 13:35:37;;;;;;;4.05;3.35;;;;;;;;;;6284716;28;20040;-81
2022/04/05 13:38:39;;;;;;;9.70;5.85;;;;;;;;;;6264269;28;20047;-80
2022/04/05 13:41:41;;;;;;;6.90;4.70;;;;;;;;;;6272640;28;20068;-80
2022/04/05 13:44:44;;;;;;;5.18;3.40;;;;;;;;;;6277233;28;20486;-81
2022/04/05 13:47:45;;;;;;;9.70;5.53;;;;;;;;;;6264880;28;20057;-80
2022/04/05 13:50:51;;;;;;;4.07;3.10;;;;;;;;;;6273497;28;20072;-80
2022/04/05 13:53:53;;;;;;;2.95;2.35;;;;;;;;;;6269834;28;20068;-81
2022/04/05 13:56:55;;;;;;;6.57;2.97;;;;;;;;;;6288276;28;20049;-79
2022/04/05 13:59:56;;;;;;;3.05;2.28;;;;;;;;;;6279233;28;20067;-78
2022/04/05 14:02:58;;;;;;;2.53;2.22;;;;;;;;;;6299021;28;20051;-80
2022/04/05 14:06:00;;;;;;;2.70;1.77;;;;;;;;;;6292555;28;20072;-78
2022/04/05 14:09:03;;;;;;;3.17;2.28;;;;;;;;;;6272434;28;20290;-79
2022/04/05 14:12:06;;;;;;;;;;;;;;;;;;6266096;28;20653;-79
2022/04/05 14:15:10;;;;;;;3.17;2.30;;;;;;;;;;6281711;28;19927;-79
2022/04/05 14:18:11;;;;;;;;;;;;;;;;;;6267781;28;20075;-80
2022/04/05 14:21:18;;;;;;;4.28;2.13;;;;;;;;;;6265803;28;20014;-79
2022/04/05 14:24:22;;;;;;;2.78;2.13;;;;;;;;;;6266978;28;20099;-78
2022/04/05 14:27:23;;;;;;;;;;;;;;;;;;6270855;28;20582;-81
2022/04/05 14:30:25;;;;;;;2.15;1.92;;;;;;;;;;6269444;28;19920;-80
2022/04/05 14:33:27;;;;;;;3.00;2.00;;;;;;;;;;6272293;28;20049;-79
2022/04/05 14:36:29;;;;;;;2.67;1.92;;;;;;;;;;6272070;28;20049;-79
2022/04/05 14:39:34;;;;;;;2.60;1.80;;;;;;;;;;6290559;28;20124;-79
2022/04/05 14:42:36;;;;;;;2.40;1.90;;;;;;;;;;6295748;28;20485;-80
2022/04/05 14:45:58;;;;;;;2.83;2.00;;;;;;;;;;6290821;28;20258;-79
2022/04/05 14:49:00;;;;;;;2.03;1.77;;;;;;;;;;6289955;28;20044;-79
2022/04/05 14:52:03;;;;;;;2.42;2.03;;;;;;;;;;6290313;28;20045;-80
2022/04/05 14:55:06;;;;;;;2.50;1.75;;;;;;;;;;6301165;28;20071;-80
2022/04/05 14:58:07;;;;;;;1.92;1.60;;;;;;;;;;6299287;28;20044;-78
2022/04/05 15:01:09;;;;;;;3.50;1.67;;;;;;;;;;6281983;28;20056;-80
2022/04/05 15:04:12;;;;;;;2.67;1.90;;;;;;;;;;6279930;28;20053;-79
2022/04/05 15:07:14;;;;;;;2.72;1.60;;;;;;;;;;6285373;28;20109;-78
2022/04/05 15:10:16;;;;;;;2.17;1.70;;;;;;;;;;6291924;28;20048;-80
2022/04/05 15:13:22;;;;;;;2.78;1.83;;;;;;;;;;6278992;28;20674;-79
2022/04/05 15:16:26;;;;;;;2.08;1.50;;;;;;;;;;6280571;28;20112;-79
2022/04/05 15:19:28;;;;;;;1.85;1.60;;;;;;;;;;6292675;28;20706;-77
2022/04/05 15:22:30;;;;;;;1.98;1.52;;;;;;;;;;6253026;28;20608;-77
2022/04/05 15:25:32;;;;;;;3.17;1.73;;;;;;;;;;6293203;28;20057;-78
2022/04/05 15:28:34;;;;;;;1.95;1.30;;;;;;;;;;6282285;28;20052;-76
2022/04/05 15:31:35;;;;;;;2.05;1.70;;;;;;;;;;6283631;28;20041;-77
2022/04/05 15:34:38;;;;;;;3.03;2.08;;;;;;;;;;6279772;27;20044;-80
2022/04/05 15:37:46;;;;;;;2.28;1.65;;;;;;;;;;6276814;28;20056;-79
2022/04/05 15:40:48;;;;;;;2.80;2.10;;;;;;;;;;6277815;28;20170;-79
2022/04/05 15:43:50;;;;;;;1.90;1.50;;;;;;;;;;6276781;28;20127;-78
2022/04/05 15:46:52;;;;;;;2.10;1.80;;;;;;;;;;6294446;28;20095;-80
2022/04/05 15:49:58;;;;;;;2.50;2.22;;;;;;;;;;6296927;27;20055;-79
2022/04/05 15:53:02;;;;;;;3.03;1.83;;;;;;;;;;6294805;28;20119;-78
2022/04/05 15:56:04;;;;;;;5.68;2.70;;;;;;;;;;6293488;28;20044;-77
2022/04/05 15:59:06;;;;;;;3.10;2.15;;;;;;;;;;6289081;28;20951;-79
2022/04/05 16:02:08;;;;;;;4.13;2.50;;;;;;;;;;6269231;28;20220;-77
2022/04/05 16:05:09;;;;;;;2.92;2.10;;;;;;;;;;6269180;28;20052;-78
2022/04/05 16:08:12;;;;;;;3.78;2.10;;;;;;;;;;6285145;28;20053;-80
2022/04/05 16:11:13;;;;;;;2.80;2.30;;;;;;;;;;6268649;28;20144;-80
2022/04/05 16:14:21;;;;;;;2.80;1.95;;;;;;;;;;6272148;28;20040;-79
2022/04/05 16:17:23;;;;;;;3.38;2.13;;;;;;;;;;6290806;28;20047;-78
2022/04/05 16:20:25;;;;;;;3.17;2.15;;;;;;;;;;6293114;28;20090;-78
2022/04/05 16:23:27;;;;;;;3.30;2.28;;;;;;;;;;6287348;28;20056;-78
2022/04/05 16:26:31;;;;;;;4.15;2.75;;;;;;;;;;6270690;28;20051;-78
2022/04/05 16:29:33;;;;;;;2.95;2.05;;;;;;;;;;6287770;28;20040;-78
2022/04/05 16:32:34;;;;;;;3.30;2.40;;;;;;;;;;6268993;28;20068;-78
2022/04/05 16:35:36;;;;;;;3.45;2.17;;;;;;;;;;6269609;28;20076;-78
2022/04/05 16:38:38;;;;;;;3.65;2.65;;;;;;;;;;6294176;28;20051;-78
2022/04/05 16:41:40;;;;;;;4.80;3.00;;;;;;;;;;6295655;28;20051;-77
2022/04/05 16:44:42;;;;;;;3.58;2.47;;;;;;;;;;6283759;28;20408;-78
2022/04/05 16:47:44;;;;;;;5.05;3.05;;;;;;;;;;6296288;28;20056;-79
2022/04/05 16:50:45;;;;;;;4.72;3.58;;;;;;;;;;6296146;28;20068;-78
2022/04/05 16:53:47;;;;;;;4.05;2.83;;;;;;;;;;6294598;28;20104;-78
2022/04/05 16:56:50;;;;;;;5.82;3.42;;;;;;;;;;6269598;28;20068;-78
2022/04/05 16:59:51;;;;;;;4.07;2.90;;;;;;;;;;6277415;28;20056;-80
2022/04/05 17:02:53;;;;;;;4.57;3.08;;;;;;;;;;6294179;28;20101;-81
2022/04/05 17:05:55;;;;;;;7.10;3.47;;;;;;;;;;6295090;28;20226;-80
2022/04/05 17:08:56;;;;;;;4.63;3.30;;;;;;;;;;6283548;28;20079;-80
2022/04/05 17:11:59;;;;;;;6.22;3.42;;;;;;;;;;6267014;28;20049;-80
2022/04/05 17:15:03;;;;;;;4.97;3.20;;;;;;;;;;6269009;28;20076;-78
2022/04/05 17:18:06;;;;;;;3.83;2.90;;;;;;;;;;6249073;28;20044;-78
2022/04/05 17:21:07;;;;;;;5.82;3.28;;;;;;;;;;6282072;28;20051;-78
2022/04/05 17:24:09;;;;;;;5.10;3.33;;;;;;;;;;6302379;28;20094;-79
2022/04/05 17:27:11;;;;;;;5.15;3.33;;;;;;;;;;6291366;28;20091;-81
2022/04/05 17:30:14;;;;;;;4.43;2.88;;;;;;;;;;6290693;28;20052;-77
2022/04/05 17:33:18;;;;;;;2.90;2.08;;;;;;;;;;6294811;28;20052;-79
2022/04/05 17:36:20;;;;;;;4.20;3.05;;;;;;;;;;6293810;28;20507;-79
2022/04/05 17:39:22;;;;;;;4.88;2.90;;;;;;;;;;6278606;28;20049;-79
2022/04/05 17:42:24;;;;;;;4.53;3.22;;;;;;;;;;6281718;28;20094;-78
2022/04/05 17:45:26;;;;;;;5.03;3.20;;;;;;;;;;6292898;28;20179;-79
2022/04/05 17:48:28;;;;;;;4.65;3.15;;;;;;;;;;6270299;28;20053;-79
2022/04/05 17:51:30;;;;;;;4.43;2.90;;;;;;;;;;6270396;28;20611;-79
2022/04/05 17:54:32;;;;;;;4.55;3.42;;;;;;;;;;6268127;28;20174;-78
2022/04/05 17:57:34;;;;;;;5.35;3.65;;;;;;;;;;6265336;28;20056;-80
2022/04/05 18:00:35;;;;;;;4.97;3.20;;;;;;;;;;6265516;28;20109;-80
2022/04/05 18:03:40;;;;;;;5.95;3.67;;;;;;;;;;6285064;28;20142;-80
2022/04/05 18:06:42;;;;;;;16.63;6.78;;;;;;;;;;6285819;28;20048;-80
2022/04/05 18:09:44;;;;;;;4.32;3.47;;;;;;;;;;6269777;28;20136;-79
2022/04/05 18:12:48;;;;;;;8.60;4.25;;;;;;;;;;6273088;28;20120;-79
2022/04/05 18:15:50;;;;;;;24.05;10.68;;;;;;;;;;6281036;28;20052;-77
2022/04/05 18:18:52;;;;;;;11.07;6.57;;;;;;;;;;6255600;28;20045;-78
2022/04/05 18:21:53;;;;;;;9.02;6.10;;;;;;;;;;6264435;28;20044;-79
2022/04/05 18:24:55;;;;;;;12.15;9.98;;;;;;;;;;6276583;28;20060;-80